sensor_id;sensor_type;location;lat;lon;timestamp;temperature;humidity
72355;SHT30;60314;55.040;73.076;2023-02-28T00:00:23;-1.88;86.41
72355;SHT30;60314;55.040;73.076;2023-02-28T00:05:25;-1.83;86.34
72355;SHT30;60314;55.040;73.076;2023-02-28T00:10:28;-1.77;86.18
72355;SHT30;60314;55.040;73.076;2023-02-28T00:15:35;-1.81;86.55
72355;SHT30;60314;55.040;73.076;2023-02-28T00:20:37;-1.82;86.43
72355;SHT30;60314;55.040;73.076;2023-02-28T00:25:38;-1.78;86.47
72355;SHT30;60314;55.040;73.076;2023-02-28T00:30:49;-1.83;86.57
72355;SHT30;60314;55.040;73.076;2023-02-28T00:35:51;-1.83;86.79
72355;SHT30;60314;55.040;73.076;2023-02-28T00:40:57;-1.85;86.96
72355;SHT30;60314;55.040;73.076;2023-02-28T00:46:04;-1.88;86.91
72355;SHT30;60314;55.040;73.076;2023-02-28T00:51:06;-1.85;86.58
72355;SHT30;60314;55.040;73.076;2023-02-28T00:56:07;-1.89;86.12
72355;SHT30;60314;55.040;73.076;2023-02-28T01:01:08;-1.85;85.80
72355;SHT30;60314;55.040;73.076;2023-02-28T01:06:12;-1.85;85.60
72355;SHT30;60314;55.040;73.076;2023-02-28T01:11:55;-1.82;85.27
72355;SHT30;60314;55.040;73.076;2023-02-28T01:17:06;-1.82;85.17
72355;SHT30;60314;55.040;73.076;2023-02-28T01:22:11;-1.82;85.46
72355;SHT30;60314;55.040;73.076;2023-02-28T01:27:13;-1.81;85.17
72355;SHT30;60314;55.040;73.076;2023-02-28T01:32:14;-1.79;85.32
72355;SHT30;60314;55.040;73.076;2023-02-28T01:37:21;-1.78;85.42
72355;SHT30;60314;55.040;73.076;2023-02-28T01:42:23;-1.79;85.42
72355;SHT30;60314;55.040;73.076;2023-02-28T01:47:31;-1.81;85.42
72355;SHT30;60314;55.040;73.076;2023-02-28T01:52:33;-1.79;85.35
72355;SHT30;60314;55.040;73.076;2023-02-28T01:57:36;-1.82;85.22
72355;SHT30;60314;55.040;73.076;2023-02-28T02:02:44;-1.82;84.85
72355;SHT30;60314;55.040;73.076;2023-02-28T02:07:58;-1.86;84.69
72355;SHT30;60314;55.040;73.076;2023-02-28T02:13:16;-1.85;84.65
72355;SHT30;60314;55.040;73.076;2023-02-28T02:29:52;-2.16;85.81
72355;SHT30;60314;55.040;73.076;2023-02-28T02:35:26;-2.19;85.76
72355;SHT30;60314;55.040;73.076;2023-02-28T02:50:26;-2.21;86.98
72355;SHT30;60314;55.040;73.076;2023-02-28T02:55:38;-2.22;86.53
72355;SHT30;60314;55.040;73.076;2023-02-28T03:00:45;-2.19;86.19
72355;SHT30;60314;55.040;73.076;2023-02-28T03:05:49;-2.18;86.33
72355;SHT30;60314;55.040;73.076;2023-02-28T03:11:03;-2.16;86.25
72355;SHT30;60314;55.040;73.076;2023-02-28T03:21:34;-2.16;86.16
72355;SHT30;60314;55.040;73.076;2023-02-28T03:26:58;-2.22;86.50
72355;SHT30;60314;55.040;73.076;2023-02-28T03:32:17;-2.25;86.44
72355;SHT30;60314;55.040;73.076;2023-02-28T03:37:22;-2.23;86.48
72355;SHT30;60314;55.040;73.076;2023-02-28T03:42:29;-2.23;86.65
72355;SHT30;60314;55.040;73.076;2023-02-28T03:52:35;-2.13;86.58
72355;SHT30;60314;55.040;73.076;2023-02-28T04:02:57;-2.03;86.21
72355;SHT30;60314;55.040;73.076;2023-02-28T04:08:06;-1.98;86.33
72355;SHT30;60314;55.040;73.076;2023-02-28T04:13:07;-1.93;86.02
72355;SHT30;60314;55.040;73.076;2023-02-28T04:18:08;-1.93;86.19
72355;SHT30;60314;55.040;73.076;2023-02-28T04:23:15;-1.93;86.03
72355;SHT30;60314;55.040;73.076;2023-02-28T04:28:17;-1.86;85.78
72355;SHT30;60314;55.040;73.076;2023-02-28T04:33:18;-1.78;85.64
72355;SHT30;60314;55.040;73.076;2023-02-28T04:38:20;-1.67;85.80
72355;SHT30;60314;55.040;73.076;2023-02-28T04:43:21;-1.62;84.97
72355;SHT30;60314;55.040;73.076;2023-02-28T04:48:23;-1.52;84.63
72355;SHT30;60314;55.040;73.076;2023-02-28T04:53:31;-1.40;84.19
72355;SHT30;60314;55.040;73.076;2023-02-28T04:58:33;-1.37;83.61
72355;SHT30;60314;55.040;73.076;2023-02-28T05:03:34;-1.26;83.34
72355;SHT30;60314;55.040;73.076;2023-02-28T05:08:41;-1.20;83.04
72355;SHT30;60314;55.040;73.076;2023-02-28T05:13:48;-1.26;82.85
72355;SHT30;60314;55.040;73.076;2023-02-28T05:18:59;-1.33;82.94
72355;SHT30;60314;55.040;73.076;2023-02-28T05:24:02;-1.33;82.43
72355;SHT30;60314;55.040;73.076;2023-02-28T05:29:03;-1.29;82.30
72355;SHT30;60314;55.040;73.076;2023-02-28T05:34:06;-1.26;82.29
72355;SHT30;60314;55.040;73.076;2023-02-28T05:39:07;-1.30;82.33
72355;SHT30;60314;55.040;73.076;2023-02-28T05:44:13;-1.27;82.28
72355;SHT30;60314;55.040;73.076;2023-02-28T05:49:14;-1.23;82.15
72355;SHT30;60314;55.040;73.076;2023-02-28T05:54:25;-1.24;82.04
72355;SHT30;60314;55.040;73.076;2023-02-28T05:59:27;-1.20;81.91
72355;SHT30;60314;55.040;73.076;2023-02-28T06:04:34;-1.16;81.67
72355;SHT30;60314;55.040;73.076;2023-02-28T06:09:46;-1.07;81.39
72355;SHT30;60314;55.040;73.076;2023-02-28T06:14:47;-0.95;81.14
72355;SHT30;60314;55.040;73.076;2023-02-28T06:19:48;-0.89;81.17
72355;SHT30;60314;55.040;73.076;2023-02-28T06:25:00;-0.78;80.96
72355;SHT30;60314;55.040;73.076;2023-02-28T06:30:02;-0.69;80.67
72355;SHT30;60314;55.040;73.076;2023-02-28T06:35:04;-0.65;80.78
72355;SHT30;60314;55.040;73.076;2023-02-28T06:40:11;-0.61;80.32
72355;SHT30;60314;55.040;73.076;2023-02-28T06:45:16;-0.64;80.45
72355;SHT30;60314;55.040;73.076;2023-02-28T06:50:19;-0.64;80.54
72355;SHT30;60314;55.040;73.076;2023-02-28T06:55:21;-0.68;80.88
72355;SHT30;60314;55.040;73.076;2023-02-28T07:00:27;-0.65;80.99
72355;SHT30;60314;55.040;73.076;2023-02-28T07:05:28;-0.62;80.51
72355;SHT30;60314;55.040;73.076;2023-02-28T07:10:40;-0.58;80.55
72355;SHT30;60314;55.040;73.076;2023-02-28T07:15:41;-0.62;80.44
72355;SHT30;60314;55.040;73.076;2023-02-28T07:20:46;-0.58;80.45
72355;SHT30;60314;55.040;73.076;2023-02-28T07:25:47;-0.59;80.50
72355;SHT30;60314;55.040;73.076;2023-02-28T07:30:48;-0.62;80.30
72355;SHT30;60314;55.040;73.076;2023-02-28T07:35:50;-0.57;80.44
72355;SHT30;60314;55.040;73.076;2023-02-28T07:40:51;-0.52;80.35
72355;SHT30;60314;55.040;73.076;2023-02-28T07:46:03;-0.52;80.42
72355;SHT30;60314;55.040;73.076;2023-02-28T07:51:04;-0.52;80.31
72355;SHT30;60314;55.040;73.076;2023-02-28T07:56:06;-0.54;80.77
72355;SHT30;60314;55.040;73.076;2023-02-28T08:01:08;-0.49;80.57
72355;SHT30;60314;55.040;73.076;2023-02-28T08:06:14;-0.45;80.60
72355;SHT30;60314;55.040;73.076;2023-02-28T08:11:55;-0.49;80.76
72355;SHT30;60314;55.040;73.076;2023-02-28T08:16:56;-0.48;81.29
72355;SHT30;60314;55.040;73.076;2023-02-28T08:22:02;-0.42;81.54
72355;SHT30;60314;55.040;73.076;2023-02-28T08:27:04;-0.44;81.52
72355;SHT30;60314;55.040;73.076;2023-02-28T08:32:05;-0.41;81.44
72355;SHT30;60314;55.040;73.076;2023-02-28T08:37:07;-0.34;81.46
72355;SHT30;60314;55.040;73.076;2023-02-28T08:42:08;-0.31;81.44
72355;SHT30;60314;55.040;73.076;2023-02-28T08:47:09;-0.27;81.15
72355;SHT30;60314;55.040;73.076;2023-02-28T08:52:10;-0.28;81.18
72355;SHT30;60314;55.040;73.076;2023-02-28T08:57:12;-0.22;81.08
72355;SHT30;60314;55.040;73.076;2023-02-28T09:02:13;-0.18;80.94
72355;SHT30;60314;55.040;73.076;2023-02-28T09:07:15;-0.19;80.74
72355;SHT30;60314;55.040;73.076;2023-02-28T09:12:18;-0.15;80.50
72355;SHT30;60314;55.040;73.076;2023-02-28T09:17:25;-0.13;80.66
72355;SHT30;60314;55.040;73.076;2023-02-28T09:22:26;-0.10;80.62
72355;SHT30;60314;55.040;73.076;2023-02-28T09:27:27;-0.03;80.54
72355;SHT30;60314;55.040;73.076;2023-02-28T09:32:28;-0.01;80.79
72355;SHT30;60314;55.040;73.076;2023-02-28T09:37:38;0.00;81.35
72355;SHT30;60314;55.040;73.076;2023-02-28T09:42:39;0.09;81.76
72355;SHT30;60314;55.040;73.076;2023-02-28T09:47:41;0.10;81.71
72355;SHT30;60314;55.040;73.076;2023-02-28T09:52:43;0.10;82.02
72355;SHT30;60314;55.040;73.076;2023-02-28T09:57:47;0.09;82.38
72355;SHT30;60314;55.040;73.076;2023-02-28T10:08:19;0.25;82.61
72355;SHT30;60314;55.040;73.076;2023-02-28T10:18:46;0.36;82.90
72355;SHT30;60314;55.040;73.076;2023-02-28T10:24:02;0.37;83.06
72355;SHT30;60314;55.040;73.076;2023-02-28T10:29:04;0.50;82.83
72355;SHT30;60314;55.040;73.076;2023-02-28T10:34:05;0.47;82.88
72355;SHT30;60314;55.040;73.076;2023-02-28T10:44:28;0.51;83.32
72355;SHT30;60314;55.040;73.076;2023-02-28T10:49:35;0.48;83.18
72355;SHT30;60314;55.040;73.076;2023-02-28T10:54:40;0.50;83.60
72355;SHT30;60314;55.040;73.076;2023-02-28T10:59:50;0.51;83.48
72355;SHT30;60314;55.040;73.076;2023-02-28T11:04:56;0.47;83.86
72355;SHT30;60314;55.040;73.076;2023-02-28T11:09:57;0.37;84.18
72355;SHT30;60314;55.040;73.076;2023-02-28T11:15:21;0.33;84.44
72355;SHT30;60314;55.040;73.076;2023-02-28T11:20:24;0.36;84.53
72355;SHT30;60314;55.040;73.076;2023-02-28T11:25:26;0.40;84.27
72355;SHT30;60314;55.040;73.076;2023-02-28T11:30:40;0.37;84.79
72355;SHT30;60314;55.040;73.076;2023-02-28T11:35:51;0.27;84.90
72355;SHT30;60314;55.040;73.076;2023-02-28T11:57:14;0.23;84.86
72355;SHT30;60314;55.040;73.076;2023-02-28T12:07:42;0.14;84.29
72355;SHT30;60314;55.040;73.076;2023-02-28T12:17:51;0.10;84.29
72355;SHT30;60314;55.040;73.076;2023-02-28T12:28:27;0.06;84.48
72355;SHT30;60314;55.040;73.076;2023-02-28T12:33:47;0.06;84.53
72355;SHT30;60314;55.040;73.076;2023-02-28T12:39:02;-0.01;84.73
72355;SHT30;60314;55.040;73.076;2023-02-28T12:44:21;-0.04;84.86
72355;SHT30;60314;55.040;73.076;2023-02-28T12:49:25;-0.10;85.19
72355;SHT30;60314;55.040;73.076;2023-02-28T12:54:37;-0.06;85.10
72355;SHT30;60314;55.040;73.076;2023-02-28T12:59:43;-0.11;84.89
72355;SHT30;60314;55.040;73.076;2023-02-28T13:04:47;-0.11;84.92
72355;SHT30;60314;55.040;73.076;2023-02-28T13:09:59;-0.15;84.85
72355;SHT30;60314;55.040;73.076;2023-02-28T13:20:35;-0.21;85.06
72355;SHT30;60314;55.040;73.076;2023-02-28T13:25:50;-0.14;85.10
72355;SHT30;60314;55.040;73.076;2023-02-28T13:41:55;-0.11;85.12
72355;SHT30;60314;55.040;73.076;2023-02-28T14:02:58;-0.08;85.35
72355;SHT30;60314;55.040;73.076;2023-02-28T14:08:17;-0.07;85.35
72355;SHT30;60314;55.040;73.076;2023-02-28T14:28:41;0.00;85.54
72355;SHT30;60314;55.040;73.076;2023-02-28T14:44:17;0.04;85.47
72355;SHT30;60314;55.040;73.076;2023-02-28T14:54:26;0.02;85.64
72355;SHT30;60314;55.040;73.076;2023-02-28T14:59:34;0.03;85.80
72355;SHT30;60314;55.040;73.076;2023-02-28T15:04:38;0.04;85.65
72355;SHT30;60314;55.040;73.076;2023-02-28T15:09:45;0.09;85.64
72355;SHT30;60314;55.040;73.076;2023-02-28T15:14:46;0.11;85.65
72355;SHT30;60314;55.040;73.076;2023-02-28T15:19:48;0.09;85.68
72355;SHT30;60314;55.040;73.076;2023-02-28T15:24:52;0.09;85.75
72355;SHT30;60314;55.040;73.076;2023-02-28T15:29:54;0.13;85.71
72355;SHT30;60314;55.040;73.076;2023-02-28T15:34:57;0.11;85.74
72355;SHT30;60314;55.040;73.076;2023-02-28T15:40:22;0.11;85.86
72355;SHT30;60314;55.040;73.076;2023-02-28T15:45:39;0.14;85.85
72355;SHT30;60314;55.040;73.076;2023-02-28T15:50:42;0.14;85.92
72355;SHT30;60314;55.040;73.076;2023-02-28T15:55:44;0.09;86.09
72355;SHT30;60314;55.040;73.076;2023-02-28T16:00:58;0.10;86.10
72355;SHT30;60314;55.040;73.076;2023-02-28T16:11:55;0.10;86.26
72355;SHT30;60314;55.040;73.076;2023-02-28T16:17:10;0.11;86.19
72355;SHT30;60314;55.040;73.076;2023-02-28T16:22:21;0.14;86.17
72355;SHT30;60314;55.040;73.076;2023-02-28T16:27:32;0.14;86.24
72355;SHT30;60314;55.040;73.076;2023-02-28T16:32:37;0.18;86.43
72355;SHT30;60314;55.040;73.076;2023-02-28T16:37:44;0.13;86.89
72355;SHT30;60314;55.040;73.076;2023-02-28T16:42:51;0.11;87.25
72355;SHT30;60314;55.040;73.076;2023-02-28T16:48:03;0.11;87.31
72355;SHT30;60314;55.040;73.076;2023-02-28T16:53:04;0.07;87.64
72355;SHT30;60314;55.040;73.076;2023-02-28T16:58:05;0.09;87.98
72355;SHT30;60314;55.040;73.076;2023-02-28T17:08:22;0.13;88.11
72355;SHT30;60314;55.040;73.076;2023-02-28T17:13:24;0.11;88.17
72355;SHT30;60314;55.040;73.076;2023-02-28T17:18:25;0.11;88.11
72355;SHT30;60314;55.040;73.076;2023-02-28T17:23:27;0.14;88.06
72355;SHT30;60314;55.040;73.076;2023-02-28T17:28:39;0.11;88.07
72355;SHT30;60314;55.040;73.076;2023-02-28T17:33:40;0.07;88.47
72355;SHT30;60314;55.040;73.076;2023-02-28T17:38:46;0.11;88.29
72355;SHT30;60314;55.040;73.076;2023-02-28T17:43:47;0.11;88.10
72355;SHT30;60314;55.040;73.076;2023-02-28T17:48:56;0.11;87.99
72355;SHT30;60314;55.040;73.076;2023-02-28T17:53:57;0.11;88.00
72355;SHT30;60314;55.040;73.076;2023-02-28T17:58:59;0.15;88.03
72355;SHT30;60314;55.040;73.076;2023-02-28T18:04:05;0.13;87.59
72355;SHT30;60314;55.040;73.076;2023-02-28T18:09:10;0.14;87.66
72355;SHT30;60314;55.040;73.076;2023-02-28T18:14:11;0.14;87.62
72355;SHT30;60314;55.040;73.076;2023-02-28T18:19:18;0.15;87.52
72355;SHT30;60314;55.040;73.076;2023-02-28T18:24:21;0.18;87.43
72355;SHT30;60314;55.040;73.076;2023-02-28T18:29:23;0.20;87.31
72355;SHT30;60314;55.040;73.076;2023-02-28T18:34:35;0.25;87.32
72355;SHT30;60314;55.040;73.076;2023-02-28T18:39:37;0.30;87.39
72355;SHT30;60314;55.040;73.076;2023-02-28T18:44:38;0.34;87.60
72355;SHT30;60314;55.040;73.076;2023-02-28T18:49:44;0.37;87.53
72355;SHT30;60314;55.040;73.076;2023-02-28T18:54:55;0.40;87.43
72355;SHT30;60314;55.040;73.076;2023-02-28T19:00:07;0.44;87.44
72355;SHT30;60314;55.040;73.076;2023-02-28T19:05:08;0.45;87.36
72355;SHT30;60314;55.040;73.076;2023-02-28T19:10:12;0.47;87.35
72355;SHT30;60314;55.040;73.076;2023-02-28T19:15:19;0.50;87.13
72355;SHT30;60314;55.040;73.076;2023-02-28T19:20:21;0.51;86.98
72355;SHT30;60314;55.040;73.076;2023-02-28T19:25:28;0.48;86.69
72355;SHT30;60314;55.040;73.076;2023-02-28T19:30:29;0.51;86.50
72355;SHT30;60314;55.040;73.076;2023-02-28T19:35:31;0.51;86.49
72355;SHT30;60314;55.040;73.076;2023-02-28T19:40:32;0.50;86.18
72355;SHT30;60314;55.040;73.076;2023-02-28T19:45:34;0.43;86.09
72355;SHT30;60314;55.040;73.076;2023-02-28T19:50:36;0.41;85.91
72355;SHT30;60314;55.040;73.076;2023-02-28T19:55:37;0.37;85.87
72355;SHT30;60314;55.040;73.076;2023-02-28T20:00:39;0.33;85.68
72355;SHT30;60314;55.040;73.076;2023-02-28T20:05:40;0.27;85.69
72355;SHT30;60314;55.040;73.076;2023-02-28T20:10:42;0.23;85.59
72355;SHT30;60314;55.040;73.076;2023-02-28T20:15:43;0.15;85.67
72355;SHT30;60314;55.040;73.076;2023-02-28T20:20:44;0.11;85.43
72355;SHT30;60314;55.040;73.076;2023-02-28T20:25:50;0.02;85.26
72355;SHT30;60314;55.040;73.076;2023-02-28T20:30:57;0.02;85.32
72355;SHT30;60314;55.040;73.076;2023-02-28T20:36:01;0.02;85.56
72355;SHT30;60314;55.040;73.076;2023-02-28T20:41:05;0.02;85.74
72355;SHT30;60314;55.040;73.076;2023-02-28T20:46:07;0.06;85.89
72355;SHT30;60314;55.040;73.076;2023-02-28T20:51:55;0.10;85.96
72355;SHT30;60314;55.040;73.076;2023-02-28T20:57:02;0.13;85.97
72355;SHT30;60314;55.040;73.076;2023-02-28T21:02:03;0.20;85.89
72355;SHT30;60314;55.040;73.076;2023-02-28T21:07:14;0.18;85.67
72355;SHT30;60314;55.040;73.076;2023-02-28T21:12:25;0.20;85.54
72355;SHT30;60314;55.040;73.076;2023-02-28T21:17:27;0.24;85.69
72355;SHT30;60314;55.040;73.076;2023-02-28T21:22:36;0.28;85.65
72355;SHT30;60314;55.040;73.076;2023-02-28T21:27:37;0.34;85.61
72355;SHT30;60314;55.040;73.076;2023-02-28T21:32:38;0.38;85.51
72355;SHT30;60314;55.040;73.076;2023-02-28T21:37:49;0.43;85.49
72355;SHT30;60314;55.040;73.076;2023-02-28T21:42:51;0.48;85.50
72355;SHT30;60314;55.040;73.076;2023-02-28T21:47:52;0.48;85.53
72355;SHT30;60314;55.040;73.076;2023-02-28T21:52:53;0.54;85.78
72355;SHT30;60314;55.040;73.076;2023-02-28T21:57:55;0.57;85.35
72355;SHT30;60314;55.040;73.076;2023-02-28T22:02:56;0.55;85.09
72355;SHT30;60314;55.040;73.076;2023-02-28T22:07:57;0.51;85.50
72355;SHT30;60314;55.040;73.076;2023-02-28T22:13:03;0.48;85.86
72355;SHT30;60314;55.040;73.076;2023-02-28T22:18:05;0.47;86.15
72355;SHT30;60314;55.040;73.076;2023-02-28T22:23:06;0.47;86.75
72355;SHT30;60314;55.040;73.076;2023-02-28T22:28:07;0.45;87.36
72355;SHT30;60314;55.040;73.076;2023-02-28T22:33:08;0.51;86.98
72355;SHT30;60314;55.040;73.076;2023-02-28T22:38:10;0.55;86.70
72355;SHT30;60314;55.040;73.076;2023-02-28T22:43:17;0.60;86.41
72355;SHT30;60314;55.040;73.076;2023-02-28T22:48:18;0.60;86.31
72355;SHT30;60314;55.040;73.076;2023-02-28T22:53:24;0.61;86.47
72355;SHT30;60314;55.040;73.076;2023-02-28T22:58:26;0.64;86.75
72355;SHT30;60314;55.040;73.076;2023-02-28T23:03:27;0.66;86.61
72355;SHT30;60314;55.040;73.076;2023-02-28T23:08:29;0.65;86.70
72355;SHT30;60314;55.040;73.076;2023-02-28T23:13:40;0.66;86.88
72355;SHT30;60314;55.040;73.076;2023-02-28T23:18:52;0.65;87.06
72355;SHT30;60314;55.040;73.076;2023-02-28T23:24:04;0.66;87.08
72355;SHT30;60314;55.040;73.076;2023-02-28T23:29:16;0.68;86.97
72355;SHT30;60314;55.040;73.076;2023-02-28T23:34:27;0.69;87.12
72355;SHT30;60314;55.040;73.076;2023-02-28T23:39:35;0.71;87.11
72355;SHT30;60314;55.040;73.076;2023-02-28T23:44:36;0.69;86.86
72355;SHT30;60314;55.040;73.076;2023-02-28T23:49:42;0.69;86.75
72355;SHT30;60314;55.040;73.076;2023-02-28T23:54:43;0.72;86.44
72355;SHT30;60314;55.040;73.076;2023-02-28T23:59:45;0.76;86.23
